Time;durP1;ratioP1;P1;durP2;ratioP2;P2;SDS_P1;SDS_P2;PMS_P1;PMS_P2;Temp;Humidity;BMP_temperature;BMP_pressure;BME280_temperature;BME280_humidity;BME280_pressure;Samples;Min_cycle;Max_cycle;Signal;HPM_P1;HPM_P2
2024/03/07 00:00:44;;;;;;;4.80;3.30;;;;;;;-0.26;100.00;100896.08;108855;1253;58827;-50
2024/03/07 00:03:11;;;;;;;7.90;5.00;;;;;;;-0.32;100.00;100894.57;109061;1253;73951;-56
2024/03/07 00:05:39;;;;;;;6.30;4.00;;;;;;;-0.40;100.00;100894.48;109224;1253;67095;-51
2024/03/07 00:08:07;;;;;;;5.90;2.80;;;;;;;-0.44;100.00;100893.19;109003;1253;72740;-51
2024/03/07 00:10:36;;;;;;;7.10;3.90;;;;;;;-0.47;100.00;100888.90;109159;1253;59681;-52
2024/03/07 00:13:03;;;;;;;4.20;3.20;;;;;;;-0.51;100.00;100886.56;109045;1254;59180;-53
2024/03/07 00:15:31;;;;;;;5.30;2.90;;;;;;;-0.56;100.00;100885.25;109044;1255;73719;-53
2024/03/07 00:18:00;;;;;;;6.60;3.10;;;;;;;-0.59;100.00;100883.96;109151;1253;70964;-51
2024/03/07 00:20:27;;;;;;;3.10;1.80;;;;;;;-0.59;100.00;100883.27;108952;1253;71204;-52
2024/03/07 00:22:54;;;;;;;4.40;3.30;;;;;;;-0.59;100.00;100882.90;109118;1253;59575;-52
2024/03/07 00:25:22;;;;;;;4.60;3.10;;;;;;;-0.60;100.00;100884.85;109172;1253;60080;-52
2024/03/07 00:27:52;;;;;;;8.20;2.90;;;;;;;-0.58;100.00;100889.09;109072;1255;73828;-52
2024/03/07 00:30:20;;;;;;;9.00;4.80;;;;;;;-0.56;100.00;100885.95;109067;1253;65821;-53
2024/03/07 00:32:47;;;;;;;3.30;2.50;;;;;;;-0.56;100.00;100887.55;107745;1254;71453;-51
2024/03/07 00:35:16;;;;;;;9.30;4.70;;;;;;;-0.55;100.00;100886.49;109002;1254;58152;-55
2024/03/07 00:37:44;;;;;;;6.50;4.30;;;;;;;-0.53;100.00;100885.84;109029;1253;59037;-50
2024/03/07 00:40:11;;;;;;;8.20;4.10;;;;;;;-0.50;100.00;100880.05;108094;1253;73927;-52
2024/03/07 00:42:38;;;;;;;4.70;3.30;;;;;;;-0.49;100.00;100878.12;106080;1258;65297;-53
2024/03/07 00:45:06;;;;;;;7.10;4.30;;;;;;;-0.50;100.00;100878.28;106125;1252;72906;-53
2024/03/07 00:47:33;;;;;;;4.30;2.60;;;;;;;-0.55;100.00;100878.92;106730;1258;60598;-52
2024/03/07 00:50:01;;;;;;;4.50;3.30;;;;;;;-0.57;100.00;100878.88;108489;1252;58862;-53
2024/03/07 00:52:29;;;;;;;7.80;3.60;;;;;;;-0.59;100.00;100879.55;106264;1253;73401;-52
2024/03/07 00:54:56;;;;;;;7.40;3.30;;;;;;;-0.64;100.00;100876.66;106121;1254;66760;-51
2024/03/07 00:57:23;;;;;;;7.20;4.30;;;;;;;-0.69;100.00;100877.12;106111;1256;70595;-52
2024/03/07 00:59:50;;;;;;;5.80;3.50;;;;;;;-0.71;100.00;100876.92;106027;1256;60425;-52
2024/03/07 01:02:18;;;;;;;3.90;3.10;;;;;;;-0.68;100.00;100878.73;108193;1253;59311;-51
2024/03/07 01:04:46;;;;;;;5.30;2.90;;;;;;;-0.67;100.00;100878.90;106112;1253;73966;-55
2024/03/07 01:07:13;;;;;;;3.60;2.80;;;;;;;-0.70;100.00;100876.23;106121;1267;69390;-55
2024/03/07 01:09:40;;;;;;;6.30;2.40;;;;;;;-0.70;100.00;100874.98;106121;1253;70356;-52
2024/03/07 01:12:09;;;;;;;3.80;2.10;;;;;;;-0.67;100.00;100876.63;106075;1257;60432;-52
2024/03/07 01:14:37;;;;;;;4.50;2.40;;;;;;;-0.60;100.00;100877.77;106445;1253;60572;-49
2024/03/07 01:17:07;;;;;;;3.90;2.50;;;;;;;-0.52;100.00;100877.02;106076;1253;74324;-51
2024/03/07 01:19:35;;;;;;;4.30;2.70;;;;;;;-0.48;100.00;100875.49;106781;1258;65843;-51
2024/03/07 01:22:02;;;;;;;6.80;3.20;;;;;;;-0.49;100.00;100874.41;106129;1256;72737;-53
2024/03/07 01:24:30;;;;;;;5.70;3.40;;;;;;;-0.51;100.00;100876.69;106130;1252;60553;-52
2024/03/07 01:26:59;;;;;;;6.80;3.80;;;;;;;-0.52;100.00;100873.69;106498;1258;60685;-51
2024/03/07 01:29:27;;;;;;;6.30;3.50;;;;;;;-0.51;100.00;100874.04;106303;1257;73821;-53
2024/03/07 01:31:55;;;;;;;5.30;3.80;;;;;;;-0.51;100.00;100877.39;106647;1253;64733;-53
2024/03/07 01:34:22;;;;;;;7.80;5.40;;;;;;;-0.50;100.00;100874.57;106034;1257;72714;-54
2024/03/07 01:36:49;;;;;;;12.30;7.10;;;;;;;-0.50;100.00;100876.87;106029;1259;61402;-53
2024/03/07 01:39:17;;;;;;;13.60;6.80;;;;;;;-0.54;100.00;100876.30;105960;1259;60468;-53
2024/03/07 01:41:45;;;;;;;9.40;5.90;;;;;;;-0.56;100.00;100874.14;106006;1256;72802;-53
2024/03/07 01:44:12;;;;;;;5.00;3.80;;;;;;;-0.57;100.00;100873.41;106011;1268;65802;-54
2024/03/07 01:46:41;;;;;;;5.30;3.60;;;;;;;-0.59;100.00;100874.10;106040;1258;73142;-55
2024/03/07 01:49:09;;;;;;;8.90;4.60;;;;;;;-0.61;100.00;100876.02;105966;1256;60436;-55
2024/03/07 01:51:36;;;;;;;7.00;4.00;;;;;;;-0.61;100.00;100874.61;106176;1253;60438;-53
2024/03/07 01:54:03;;;;;;;7.00;4.00;;;;;;;-0.62;100.00;100875.13;106121;1259;71885;-53
2024/03/07 01:56:31;;;;;;;4.40;2.70;;;;;;;-0.62;100.00;100875.83;106350;1260;65866;-55
2024/03/07 01:58:58;;;;;;;3.20;2.80;;;;;;;-0.60;100.00;100875.50;106092;1267;72398;-51
2024/03/07 02:01:26;;;;;;;6.10;4.10;;;;;;;-0.59;100.00;100877.08;106073;1257;60445;-53
2024/03/07 02:03:53;;;;;;;6.30;4.40;;;;;;;-0.60;100.00;100876.92;106165;1259;60449;-52
2024/03/07 02:06:21;;;;;;;4.50;3.30;;;;;;;-0.60;100.00;100881.86;106229;1258;72755;-52
2024/03/07 02:08:48;;;;;;;4.60;3.30;;;;;;;-0.58;100.00;100880.96;106062;1261;66102;-50
2024/03/07 02:11:15;;;;;;;3.20;2.50;;;;;;;-0.57;100.00;100881.52;106473;1258;73074;-52
2024/03/07 02:13:43;;;;;;;3.80;2.70;;;;;;;-0.60;100.00;100882.02;106180;1253;60417;-51
2024/03/07 02:16:10;;;;;;;5.70;3.20;;;;;;;-0.65;100.00;100881.05;106272;1259;60693;-53
2024/03/07 02:18:38;;;;;;;4.10;3.60;;;;;;;-0.69;100.00;100879.77;106104;1253;73940;-54
2024/03/07 02:21:07;;;;;;;4.30;2.90;;;;;;;-0.71;100.00;100877.62;106351;1253;65314;-52
2024/03/07 02:23:34;;;;;;;4.30;3.50;;;;;;;-0.75;100.00;100878.27;106147;1259;73581;-54
2024/03/07 02:26:03;;;;;;;3.50;2.90;;;;;;;-0.76;100.00;100877.38;106234;1253;60312;-53
2024/03/07 02:28:30;;;;;;;8.60;3.80;;;;;;;-0.75;100.00;100879.84;106176;1259;60813;-54
2024/03/07 02:30:57;;;;;;;4.70;2.70;;;;;;;-0.77;100.00;100877.35;106062;1263;73805;-54
2024/03/07 02:33:25;;;;;;;4.90;3.40;;;;;;;-0.77;100.00;100880.72;106087;1258;67194;-53
2024/03/07 02:35:52;;;;;;;9.30;3.50;;;;;;;-0.78;100.00;100880.52;106910;1259;71419;-55
2024/03/07 02:38:20;;;;;;;3.70;2.80;;;;;;;-0.83;100.00;100881.66;106127;1256;60423;-56
2024/03/07 02:40:48;;;;;;;4.20;3.10;;;;;;;-0.86;100.00;100875.30;106080;1253;60435;-54
2024/03/07 02:43:15;;;;;;;6.20;3.40;;;;;;;-0.86;100.00;100874.23;106078;1258;74565;-55
2024/03/07 02:45:43;;;;;;;5.70;3.40;;;;;;;-0.86;100.00;100874.42;108376;1257;67389;-55
2024/03/07 02:48:10;;;;;;;5.80;3.50;;;;;;;-0.86;100.00;100875.30;106131;1259;72676;-55
2024/03/07 02:50:38;;;;;;;5.40;3.20;;;;;;;-0.87;100.00;100874.23;106093;1258;60836;-55
2024/03/07 02:53:06;;;;;;;3.90;2.30;;;;;;;-0.88;100.00;100877.02;106068;1253;60377;-54
2024/03/07 02:55:34;;;;;;;5.90;2.90;;;;;;;-0.85;100.00;100873.35;106089;1253;73179;-54
2024/03/07 02:58:01;;;;;;;6.30;3.60;;;;;;;-0.83;100.00;100871.98;106045;1257;65969;-55
2024/03/07 03:00:32;;;;;;;4.80;3.40;;;;;;;-0.79;100.00;100870.46;106138;1259;72712;-56
2024/03/07 03:02:59;;;;;;;3.60;2.40;;;;;;;-0.76;100.00;100867.49;106089;1256;60310;-56
2024/03/07 03:05:26;;;;;;;4.20;2.70;;;;;;;-0.73;100.00;100868.79;106160;1259;60889;-57
2024/03/07 03:07:54;;;;;;;6.10;2.70;;;;;;;-0.73;100.00;100870.89;109087;1252;74189;-55
2024/03/07 03:10:28;;;;;;;7.60;3.20;;;;;;;-0.73;100.00;100869.48;109051;1258;67460;-55
2024/03/07 03:12:58;;;;;;;5.20;3.60;;;;;;;-0.71;100.00;100866.35;109089;1253;71210;-55
2024/03/07 03:15:27;;;;;;;5.20;3.10;;;;;;;-0.69;100.00;100866.73;106755;1259;60831;-54
2024/03/07 03:17:54;;;;;;;4.30;3.00;;;;;;;-0.71;100.00;100865.45;106133;1253;60069;-55
2024/03/07 03:20:25;;;;;;;5.50;3.10;;;;;;;-0.73;100.00;100866.65;106191;1259;72069;-57
2024/03/07 03:22:53;;;;;;;6.00;3.00;;;;;;;-0.76;100.00;100863.45;106090;1253;65667;-55
2024/03/07 03:25:41;;;;;;;5.30;3.40;;;;;;;-0.78;100.00;100865.38;106024;1259;71225;-56
2024/03/07 03:28:09;;;;;;;5.30;3.90;;;;;;;-0.81;100.00;100867.95;107535;1256;60444;-55
2024/03/07 03:30:38;;;;;;;4.50;3.50;;;;;;;-0.88;100.00;100868.02;109111;1251;60154;-56
2024/03/07 03:33:05;;;;;;;4.00;3.30;;;;;;;-0.92;100.00;100869.89;107725;1253;73910;-55
2024/03/07 03:35:34;;;;;;;5.90;3.40;;;;;;;-0.95;100.00;100872.85;109083;1253;65762;-55
2024/03/07 03:38:01;;;;;;;7.50;5.70;;;;;;;-0.96;100.00;100876.19;108937;1253;72700;-55
2024/03/07 03:40:29;;;;;;;5.10;4.30;;;;;;;-0.97;100.00;100879.33;106669;1259;60489;-57
2024/03/07 03:42:56;;;;;;;5.80;3.60;;;;;;;-0.99;100.00;100880.17;106157;1256;62817;-53
2024/03/07 03:45:25;;;;;;;4.40;4.00;;;;;;;-1.02;100.00;100887.17;106103;1253;74303;-56
2024/03/07 03:47:52;;;;;;;4.60;3.30;;;;;;;-1.03;100.00;100886.12;106169;1259;67265;-56
2024/03/07 03:50:22;;;;;;;6.50;3.00;;;;;;;-1.00;100.00;100887.90;106240;1252;73384;-55
2024/03/07 03:52:50;;;;;;;8.20;3.20;;;;;;;-0.97;100.00;100888.85;106206;1259;60462;-57
2024/03/07 03:55:17;;;;;;;6.40;4.30;;;;;;;-0.93;100.00;100885.05;105969;1260;141039;-56
2024/03/07 03:59:44;;;;;;;5.20;3.80;;;;;;;-0.86;100.00;100892.02;102690;1296;601209;-55
2024/03/07 04:02:12;;;;;;;6.20;4.10;;;;;;;-0.85;100.00;100894.16;105443;1273;59959;-56
2024/03/07 04:04:40;;;;;;;5.80;4.10;;;;;;;-0.80;100.00;100890.19;105469;1271;59409;-55
2024/03/07 04:07:07;;;;;;;7.30;4.30;;;;;;;-0.76;100.00;100893.23;105186;1270;71518;-56
2024/03/07 04:09:34;;;;;;;6.90;3.70;;;;;;;-0.75;100.00;100891.83;105114;1272;67422;-56
2024/03/07 04:12:02;;;;;;;6.00;3.80;;;;;;;-0.80;100.00;100893.01;105131;1274;72107;-55
2024/03/07 04:14:32;;;;;;;4.80;3.90;;;;;;;-0.82;100.00;100895.41;105209;1276;137819;-56
2024/03/07 04:17:00;;;;;;;5.40;4.80;;;;;;;-0.83;100.00;100896.46;105374;1270;60121;-56
2024/03/07 04:19:27;;;;;;;6.60;4.70;;;;;;;-0.83;100.00;100898.23;105286;1272;72321;-56
2024/03/07 04:21:54;;;;;;;6.50;4.70;;;;;;;-0.87;100.00;100893.59;105354;1271;66270;-54
2024/03/07 04:24:22;;;;;;;8.10;5.20;;;;;;;-0.94;100.00;100899.29;105246;1266;73819;-55
2024/03/07 04:26:49;;;;;;;5.40;4.50;;;;;;;-0.99;100.00;100903.79;105206;1270;59649;-55
2024/03/07 04:29:17;;;;;;;7.30;4.50;;;;;;;-1.03;100.00;100901.78;105142;1271;59619;-56
2024/03/07 04:31:45;;;;;;;6.00;4.90;;;;;;;-1.05;100.00;100902.64;105815;1269;72811;-56
2024/03/07 04:34:12;;;;;;;8.30;4.90;;;;;;;-1.03;100.00;100905.14;105233;1279;67761;-54
2024/03/07 04:36:41;;;;;;;6.40;3.90;;;;;;;-1.03;100.00;100907.27;105234;1266;72732;-54
2024/03/07 04:39:22;;;;;;;10.30;3.80;;;;;;;-1.03;100.00;100904.44;105281;1267;60855;-56
2024/03/07 04:41:52;;;;;;;7.70;3.90;;;;;;;-1.00;100.00;100906.75;105745;1271;59643;-56
2024/03/07 04:44:24;;;;;;;10.50;4.70;;;;;;;-0.96;100.00;100907.19;105475;1269;71979;-55
2024/03/07 04:46:56;;;;;;;22.60;9.50;;;;;;;-0.90;100.00;100907.11;106250;1269;69132;-56
2024/03/07 04:49:24;;;;;;;39.70;17.30;;;;;;;-0.86;100.00;100902.60;105318;1269;71551;-55
2024/03/07 04:51:55;;;;;;;42.10;16.30;;;;;;;-0.81;100.00;100905.52;105462;1270;59940;-55
2024/03/07 04:54:23;;;;;;;22.20;9.90;;;;;;;-0.78;100.00;100902.55;105259;1271;59704;-56
2024/03/07 04:56:51;;;;;;;13.00;7.40;;;;;;;-0.73;100.00;100906.86;105354;1276;73855;-55
2024/03/07 04:59:19;;;;;;;8.30;5.40;;;;;;;-0.74;100.00;100909.13;105434;1270;65821;-55
2024/03/07 05:01:47;;;;;;;10.00;5.30;;;;;;;-0.75;100.00;100910.69;105572;1270;72888;-56
2024/03/07 05:04:15;;;;;;;6.40;4.50;;;;;;;-0.76;100.00;100910.86;105398;1267;59865;-56
2024/03/07 05:06:43;;;;;;;5.90;3.50;;;;;;;-0.81;100.00;100915.71;105298;1268;60595;-56
2024/03/07 05:09:22;;;;;;;3.70;2.70;;;;;;;-0.86;100.00;100918.45;105320;1267;71341;-55
2024/03/07 05:11:53;;;;;;;5.60;3.10;;;;;;;-0.95;100.00;100916.02;106468;1271;66943;-54
2024/03/07 05:14:21;;;;;;;6.90;4.70;;;;;;;-1.00;100.00;100921.38;105513;1270;70231;-56
2024/03/07 05:17:04;;;;;;;10.30;6.00;;;;;;;-1.03;100.00;100919.77;105282;1266;60526;-55
2024/03/07 05:19:33;;;;;;;9.20;5.00;;;;;;;-1.04;100.00;100924.85;105363;1280;60470;-55
2024/03/07 05:22:01;;;;;;;8.70;5.20;;;;;;;-1.04;100.00;100925.55;105758;1270;72156;-56
2024/03/07 05:24:28;;;;;;;8.20;6.40;;;;;;;-1.03;100.00;100928.05;105469;1267;66791;-56
2024/03/07 05:26:56;;;;;;;9.30;6.10;;;;;;;-1.00;100.00;100932.48;105562;1264;71460;-56
2024/03/07 05:29:24;;;;;;;9.30;5.00;;;;;;;-0.98;100.00;100929.88;105495;1275;61263;-55
2024/03/07 05:31:51;;;;;;;9.60;6.50;;;;;;;-0.94;100.00;100931.37;108663;1257;60053;-56
2024/03/07 05:34:19;;;;;;;5.60;4.40;;;;;;;-0.88;100.00;100932.70;106203;1263;71966;-57
2024/03/07 05:36:46;;;;;;;4.80;3.80;;;;;;;-0.81;100.00;100931.57;106504;1263;65701;-56
2024/03/07 05:39:15;;;;;;;11.60;6.40;;;;;;;-0.78;100.00;100932.34;105817;1261;71451;-54
2024/03/07 05:41:45;;;;;;;10.70;6.90;;;;;;;-0.78;100.00;100933.77;105901;1266;59632;-55
2024/03/07 05:44:13;;;;;;;12.90;9.30;;;;;;;-0.79;100.00;100934.98;105956;1264;59763;-54
2024/03/07 05:46:42;;;;;;;7.50;5.30;;;;;;;-0.79;100.00;100937.77;105919;1264;71429;-54
2024/03/07 05:49:09;;;;;;;7.50;4.30;;;;;;;-0.79;100.00;100939.73;105841;1264;66441;-55
2024/03/07 05:51:36;;;;;;;10.10;4.50;;;;;;;-0.78;100.00;100942.04;105926;1271;71385;-55
2024/03/07 05:54:06;;;;;;;8.20;4.10;;;;;;;-0.79;100.00;100937.08;105805;1257;60120;-53
2024/03/07 05:56:37;;;;;;;7.50;4.30;;;;;;;-0.81;100.00;100940.23;108739;1258;60581;-56
2024/03/07 05:59:04;;;;;;;5.90;3.70;;;;;;;-0.81;100.00;100937.58;108715;1257;71670;-56
2024/03/07 06:01:32;;;;;;;6.40;4.90;;;;;;;-0.79;100.00;100941.30;108680;1257;66186;-56
2024/03/07 06:04:00;;;;;;;6.50;5.50;;;;;;;-0.76;100.00;100941.34;108795;1260;72731;-56
2024/03/07 06:06:28;;;;;;;8.60;5.20;;;;;;;-0.78;100.00;100942.04;108692;1257;59251;-54
2024/03/07 06:08:56;;;;;;;8.00;4.80;;;;;;;-0.80;100.00;100947.27;108782;1262;61105;-55
2024/03/07 06:11:24;;;;;;;9.70;5.50;;;;;;;-0.84;100.00;100947.92;108697;1257;73273;-55
2024/03/07 06:13:51;;;;;;;7.90;4.70;;;;;;;-0.85;100.00;100947.20;106993;1263;65748;-54
2024/03/07 06:16:20;;;;;;;5.90;3.20;;;;;;;-0.85;100.00;100948.79;105737;1260;71095;-55
2024/03/07 06:18:47;;;;;;;4.90;3.20;;;;;;;-0.87;100.00;100950.53;105705;1260;59538;-56
2024/03/07 06:21:15;;;;;;;6.70;2.70;;;;;;;-0.84;100.00;100951.11;105703;1257;59966;-55
2024/03/07 06:23:43;;;;;;;4.10;2.70;;;;;;;-0.77;100.00;100951.55;105747;1263;73020;-56
2024/03/07 06:26:16;;;;;;;4.10;3.30;;;;;;;-0.69;100.00;100952.73;105874;1264;66932;-57
2024/03/07 06:28:45;;;;;;;7.20;4.80;;;;;;;-0.65;100.00;100951.38;106154;1262;72613;-56
2024/03/07 06:31:12;;;;;;;8.20;5.60;;;;;;;-0.65;100.00;100951.04;105769;1263;59794;-54
2024/03/07 06:33:39;;;;;;;6.60;3.30;;;;;;;-0.64;100.00;100948.77;105708;1264;60635;-56
2024/03/07 06:36:08;;;;;;;9.50;3.80;;;;;;;-0.65;100.00;100949.45;106272;1263;70683;-56
2024/03/07 06:38:36;;;;;;;14.50;6.30;;;;;;;-0.64;100.00;100944.02;106951;1258;67209;-56
2024/03/07 06:41:04;;;;;;;15.70;6.10;;;;;;;-0.66;100.00;100950.15;105796;1273;72765;-55
2024/03/07 06:43:32;;;;;;;10.10;5.80;;;;;;;-0.66;100.00;100948.02;106929;1259;60057;-56
2024/03/07 06:45:59;;;;;;;7.60;4.80;;;;;;;-0.68;100.00;100949.05;105859;1263;60105;-55
2024/03/07 06:48:27;;;;;;;7.90;4.90;;;;;;;-0.71;100.00;100950.77;105758;1258;70806;-55
2024/03/07 06:50:55;;;;;;;5.90;3.80;;;;;;;-0.73;100.00;100950.73;106086;1262;66798;-54
2024/03/07 06:53:26;;;;;;;10.20;5.40;;;;;;;-0.75;100.00;100952.98;105769;1260;72391;-55
2024/03/07 06:55:53;;;;;;;5.20;3.80;;;;;;;-0.79;100.00;100958.93;106599;1257;59734;-55
2024/03/07 06:58:20;;;;;;;4.90;3.00;;;;;;;-0.84;100.00;100960.60;105793;1263;60341;-56
2024/03/07 07:00:51;;;;;;;7.40;4.40;;;;;;;-0.90;100.00;100962.45;106184;1258;72901;-56
2024/03/07 07:03:20;;;;;;;6.30;3.70;;;;;;;-0.97;100.00;100963.91;106292;1263;66010;-55
2024/03/07 07:05:47;;;;;;;5.90;4.10;;;;;;;-1.01;100.00;100968.05;105759;1259;72764;-56
2024/03/07 07:08:15;;;;;;;7.10;3.90;;;;;;;-1.02;100.00;100969.27;105738;1264;60901;-56
2024/03/07 07:10:43;;;;;;;3.40;2.90;;;;;;;-1.02;100.00;100963.64;108591;1260;59340;-56
2024/03/07 07:13:10;;;;;;;8.90;3.80;;;;;;;-0.98;100.00;100965.65;106828;1258;71985;-55
2024/03/07 07:15:38;;;;;;;4.30;2.40;;;;;;;-0.92;100.00;100967.87;105913;1260;67683;-55
2024/03/07 07:18:07;;;;;;;4.60;3.10;;;;;;;-0.84;100.00;100972.42;105829;1257;74401;-56
2024/03/07 07:20:34;;;;;;;13.80;4.80;;;;;;;-0.73;100.00;100972.77;106129;1258;60677;-56
2024/03/07 07:23:03;;;;;;;6.10;4.00;;;;;;;-0.63;100.00;100973.46;105771;1258;60498;-55
2024/03/07 07:25:31;;;;;;;6.20;5.00;;;;;;;-0.59;100.00;100978.98;105785;1273;73414;-53
2024/03/07 07:28:04;;;;;;;4.80;3.90;;;;;;;-0.59;100.00;100977.92;105721;1262;66655;-55
2024/03/07 07:30:31;;;;;;;7.20;4.70;;;;;;;-0.60;100.00;100980.05;105802;1264;73760;-56
2024/03/07 07:32:59;;;;;;;10.70;5.90;;;;;;;-0.66;100.00;100979.95;105733;1264;59807;-56
2024/03/07 07:35:26;;;;;;;11.30;6.30;;;;;;;-0.68;100.00;100981.85;106022;1268;60766;-56
2024/03/07 07:37:55;;;;;;;8.90;5.20;;;;;;;-0.67;100.00;100978.86;105773;1257;70910;-56
2024/03/07 07:40:25;;;;;;;7.30;5.00;;;;;;;-0.64;100.00;100979.26;105817;1262;65993;-56
2024/03/07 07:42:52;;;;;;;7.80;5.50;;;;;;;-0.68;100.00;100981.15;105708;1263;71764;-54
2024/03/07 07:45:21;;;;;;;10.90;6.80;;;;;;;-0.74;100.00;100981.73;105757;1261;59779;-54
2024/03/07 07:47:49;;;;;;;9.30;6.90;;;;;;;-0.74;100.00;100987.20;106553;1258;59890;-55
2024/03/07 07:50:18;;;;;;;9.50;6.60;;;;;;;-0.72;100.00;100989.54;106405;1259;71176;-55
2024/03/07 07:52:49;;;;;;;5.90;4.70;;;;;;;-0.67;100.00;100989.08;106222;1257;65262;-54
2024/03/07 07:55:17;;;;;;;9.20;4.90;;;;;;;-0.61;100.00;100985.50;105804;1263;71484;-56
2024/03/07 07:57:45;;;;;;;8.10;6.00;;;;;;;-0.57;100.00;100986.44;105784;1260;59669;-56
2024/03/07 08:00:23;;;;;;;5.30;3.40;;;;;;;-0.51;100.00;100988.65;105933;1263;60409;-55
2024/03/07 08:02:52;;;;;;;4.20;3.60;;;;;;;-0.47;100.00;100986.95;106446;1264;72575;-56
2024/03/07 08:05:22;;;;;;;10.30;4.40;;;;;;;-0.45;100.00;100980.64;106800;1257;65816;-55
2024/03/07 08:07:51;;;;;;;8.80;4.90;;;;;;;-0.43;100.00;100982.61;105984;1259;72957;-55
2024/03/07 08:10:19;;;;;;;7.00;4.00;;;;;;;-0.41;100.00;100985.81;105707;1257;61528;-56
2024/03/07 08:12:46;;;;;;;9.30;4.50;;;;;;;-0.39;100.00;100984.43;106127;1254;60266;-56
2024/03/07 08:15:14;;;;;;;7.30;4.80;;;;;;;-0.35;100.00;100982.38;105906;1254;71821;-56
2024/03/07 08:17:46;;;;;;;12.30;5.50;;;;;;;-0.32;100.00;100983.83;105916;1258;67345;-54
2024/03/07 08:20:18;;;;;;;14.80;7.10;;;;;;;-0.30;100.00;100984.91;105991;1261;74229;-55
2024/03/07 08:22:45;;;;;;;8.50;5.50;;;;;;;-0.30;100.00;100985.45;106148;1261;60616;-54
2024/03/07 08:25:14;;;;;;;9.90;6.60;;;;;;;-0.34;100.00;100991.21;107059;1257;60210;-55
2024/03/07 08:27:42;;;;;;;4.50;4.00;;;;;;;-0.35;100.00;100989.09;105958;1254;73934;-54
2024/03/07 08:30:14;;;;;;;8.40;5.00;;;;;;;-0.35;100.00;100986.63;107360;1255;67930;-55
2024/03/07 08:32:43;;;;;;;6.30;4.20;;;;;;;-0.35;100.00;100987.33;106017;1261;71286;-54
2024/03/07 08:35:11;;;;;;;6.00;4.50;;;;;;;-0.34;100.00;100989.09;106149;1254;61356;-55
2024/03/07 08:37:39;;;;;;;7.40;3.90;;;;;;;-0.32;100.00;100987.70;106377;1255;60465;-55
2024/03/07 08:40:09;;;;;;;14.40;6.30;;;;;;;-0.30;100.00;100989.86;107488;1254;74024;-54
2024/03/07 08:42:37;;;;;;;13.70;8.00;;;;;;;-0.29;100.00;100990.23;106847;1256;67093;-56
2024/03/07 08:45:05;;;;;;;6.70;4.80;;;;;;;-0.31;100.00;100993.90;106003;1255;71485;-56
2024/03/07 08:47:33;;;;;;;10.90;5.20;;;;;;;-0.39;100.00;100999.77;108973;1254;60015;-55
2024/03/07 08:50:01;;;;;;;8.10;4.70;;;;;;;-0.52;100.00;101001.50;106498;1258;61557;-55
2024/03/07 08:52:28;;;;;;;8.80;5.30;;;;;;;-0.57;100.00;100998.24;105950;1259;73958;-55
2024/03/07 08:54:56;;;;;;;6.10;3.80;;;;;;;-0.53;100.00;100998.33;106017;1262;65638;-55
2024/03/07 08:57:23;;;;;;;5.40;2.40;;;;;;;-0.46;100.00;100996.68;105951;1259;72758;-54
2024/03/07 08:59:50;;;;;;;7.10;3.30;;;;;;;-0.42;100.00;100999.71;105954;1256;60403;-54
2024/03/07 09:02:18;;;;;;;6.70;4.60;;;;;;;-0.43;100.00;101003.25;106001;1259;60776;-55
2024/03/07 09:04:46;;;;;;;8.70;4.20;;;;;;;-0.44;100.00;101000.06;105940;1269;72682;-54
2024/03/07 09:07:14;;;;;;;5.90;4.20;;;;;;;-0.44;100.00;100994.25;106045;1254;68294;-56
2024/03/07 09:09:45;;;;;;;7.90;4.80;;;;;;;-0.43;100.00;101000.25;106058;1256;73120;-55
2024/03/07 09:12:13;;;;;;;5.80;4.00;;;;;;;-0.42;100.00;101001.48;106024;1254;60758;-55
2024/03/07 09:14:41;;;;;;;9.20;4.70;;;;;;;-0.46;100.00;101000.55;109029;1253;59419;-55
2024/03/07 09:17:13;;;;;;;9.40;5.20;;;;;;;-0.48;100.00;100999.10;108993;1255;73959;-56
2024/03/07 09:19:41;;;;;;;6.90;4.90;;;;;;;-0.47;100.00;100996.64;108959;1254;66369;-56
2024/03/07 09:22:09;;;;;;;5.70;4.60;;;;;;;-0.47;100.00;100994.02;109012;1254;72738;-56
2024/03/07 09:24:37;;;;;;;8.10;5.30;;;;;;;-0.44;100.00;100996.17;108977;1254;61504;-56
2024/03/07 09:27:05;;;;;;;8.90;5.20;;;;;;;-0.40;100.00;100995.86;107157;1256;60572;-56
2024/03/07 09:29:33;;;;;;;5.10;4.10;;;;;;;-0.37;100.00;100995.04;106334;1254;71822;-55
2024/03/07 09:32:02;;;;;;;7.80;4.40;;;;;;;-0.35;100.00;100992.62;105996;1258;65768;-55
2024/03/07 09:34:30;;;;;;;6.20;3.70;;;;;;;-0.31;100.00;100990.89;106557;1254;73179;-55
2024/03/07 09:36:59;;;;;;;5.90;3.90;;;;;;;-0.27;100.00;100990.63;106251;1259;61535;-56
2024/03/07 09:39:26;;;;;;;6.30;4.00;;;;;;;-0.23;100.00;100987.50;106422;1254;60494;-56
2024/03/07 09:41:55;;;;;;;6.90;4.50;;;;;;;-0.18;100.00;100990.23;106008;1259;73875;-55
2024/03/07 09:44:22;;;;;;;9.60;5.40;;;;;;;-0.19;100.00;100991.80;105955;1258;65839;-55
2024/03/07 09:46:50;;;;;;;5.70;3.50;;;;;;;-0.18;100.00;100992.16;106088;1261;71907;-55
2024/03/07 09:49:18;;;;;;;8.80;4.90;;;;;;;-0.11;100.00;100994.04;106462;1255;60433;-54
2024/03/07 09:51:46;;;;;;;9.30;4.50;;;;;;;-0.08;100.00;100992.30;105891;1254;61144;-54
2024/03/07 09:54:14;;;;;;;6.20;4.20;;;;;;;-0.07;100.00;100991.26;106127;1258;73889;-56
2024/03/07 09:56:42;;;;;;;8.40;4.70;;;;;;;-0.07;100.00;100991.42;105945;1260;67722;-56
2024/03/07 09:59:12;;;;;;;7.60;4.80;;;;;;;-0.09;100.00;100988.23;105985;1256;71251;-56
2024/03/07 10:01:39;;;;;;;8.70;5.20;;;;;;;-0.11;100.00;100990.86;106072;1259;60764;-57
2024/03/07 10:04:11;;;;;;;9.40;5.00;;;;;;;-0.12;100.00;100990.67;105900;1259;60563;-57
2024/03/07 10:06:39;;;;;;;6.70;4.70;;;;;;;-0.10;100.00;100989.64;105865;1260;72804;-54
2024/03/07 10:09:07;;;;;;;4.90;4.00;;;;;;;-0.06;100.00;100985.45;106100;1254;66975;-54
2024/03/07 10:11:35;;;;;;;7.20;4.50;;;;;;;-0.03;100.00;100986.74;106501;1254;71785;-54
2024/03/07 10:14:07;;;;;;;5.00;3.50;;;;;;;0.02;100.00;100985.03;106349;1258;60426;-55
2024/03/07 10:16:34;;;;;;;6.30;4.00;;;;;;;0.08;100.00;100987.41;106147;1257;60604;-55
2024/03/07 10:19:04;;;;;;;9.50;5.30;;;;;;;0.12;100.00;100983.40;105921;1267;73885;-57
2024/03/07 10:21:33;;;;;;;8.10;4.50;;;;;;;0.14;100.00;100987.86;105970;1254;67732;-55
2024/03/07 10:24:07;;;;;;;5.50;4.10;;;;;;;0.18;100.00;100979.08;105892;1259;70959;-56
2024/03/07 10:26:37;;;;;;;7.30;4.70;;;;;;;0.22;100.00;100979.14;106000;1260;61921;-55
2024/03/07 10:29:05;;;;;;;7.10;4.70;;;;;;;0.25;100.00;100977.77;105940;1259;62022;-56
2024/03/07 10:31:33;;;;;;;13.00;5.50;;;;;;;0.28;100.00;100980.60;106649;1255;72654;-55
2024/03/07 10:34:08;;;;;;;10.50;4.90;;;;;;;0.31;100.00;100976.23;105859;1259;67704;-56
2024/03/07 10:36:35;;;;;;;9.50;5.70;;;;;;;0.33;100.00;100974.33;106043;1258;72741;-56
2024/03/07 10:39:12;;;;;;;8.90;5.70;;;;;;;0.37;100.00;100974.38;105963;1267;61366;-55
2024/03/07 10:41:44;;;;;;;7.30;4.10;;;;;;;0.37;100.00;100976.49;105943;1258;61243;-56
2024/03/07 10:44:32;;;;;;;7.70;5.60;;;;;;;0.39;100.00;100975.46;106020;1259;71824;-56
2024/03/07 10:47:03;;;;;;;9.30;4.90;;;;;;;0.42;100.00;100973.57;106077;1258;65921;-55
2024/03/07 10:49:33;;;;;;;8.80;6.00;;;;;;;0.39;100.00;100971.94;106054;1259;71460;-56
2024/03/07 10:52:13;;;;;;;6.50;4.60;;;;;;;0.33;100.00;100972.73;106134;1259;60416;-56
2024/03/07 10:54:46;;;;;;;11.50;5.60;;;;;;;0.31;100.00;100972.36;106378;1263;60196;-57
2024/03/07 10:57:32;;;;;;;6.30;4.80;;;;;;;0.32;100.00;100973.63;106038;1254;72647;-56
2024/03/07 11:01:05;;;;;;;13.10;6.30;;;;;;;0.32;100.00;100971.49;106275;1258;65671;-56
2024/03/07 11:03:02;;;;;;;5.50;4.60;;;;;;;0.29;100.00;100974.63;105979;1258;72104;-57
2024/03/07 11:05:29;;;;;;;7.80;5.50;;;;;;;0.29;100.00;100973.74;105938;1257;60429;-57
2024/03/07 11:07:58;;;;;;;7.50;5.00;;;;;;;0.31;100.00;100975.36;107147;1254;60399;-56
2024/03/07 11:10:26;;;;;;;7.50;4.30;;;;;;;0.34;100.00;100973.80;106190;1258;76102;-57
2024/03/07 11:12:53;;;;;;;7.20;4.40;;;;;;;0.34;100.00;100977.34;106064;1256;65999;-56
2024/03/07 11:15:21;;;;;;;7.20;4.70;;;;;;;0.27;100.00;100972.48;105959;1254;71615;-56
2024/03/07 11:17:53;;;;;;;9.00;5.70;;;;;;;0.24;100.00;100969.30;105971;1254;60476;-57